Time;durP1;ratioP1;P1;durP2;ratioP2;P2;SDS_P1;SDS_P2;PMS_P1;PMS_P2;Temp;Humidity;BMP_temperature;BMP_pressure;BME280_temperature;BME280_humidity;BME280_pressure;Samples;Min_cycle;Max_cycle;Signal;HPM_P1;HPM_P2
2021/05/24 00:02:13;;;;;;;3.08;1.38;;;11.30;57.70;;;;;;4951944;29;20038;-80
2021/05/24 00:04:39;;;;;;;1.40;1.30;;;11.30;57.70;;;;;;4950915;29;20035;-80
2021/05/24 00:07:06;;;;;;;2.03;1.63;;;11.20;57.60;;;;;;4902567;29;20038;-80
2021/05/24 00:09:33;;;;;;;2.10;1.45;;;11.20;57.60;;;;;;4951440;29;20058;-81
2021/05/24 00:12:01;;;;;;;2.83;1.70;;;11.20;57.70;;;;;;4934004;29;20035;-82
2021/05/24 00:14:28;;;;;;;2.45;1.30;;;11.10;57.60;;;;;;4934370;29;20046;-80
2021/05/24 00:16:54;;;;;;;1.50;1.40;;;11.10;57.60;;;;;;4934257;29;20027;-80
2021/05/24 00:19:20;;;;;;;2.53;1.58;;;11.10;57.70;;;;;;4933619;29;20039;-80
2021/05/24 00:21:47;;;;;;;2.90;1.70;;;11.00;57.50;;;;;;4914891;29;20063;-80
2021/05/24 00:24:13;;;;;;;3.15;1.63;;;11.00;57.60;;;;;;4930658;29;20036;-80
2021/05/24 00:26:39;;;;;;;1.45;1.35;;;11.00;57.70;;;;;;4931964;29;20027;-80
2021/05/24 00:29:05;;;;;;;2.28;1.42;;;11.00;57.80;;;;;;4932246;29;20036;-80
2021/05/24 00:31:31;;;;;;;2.78;1.73;;;10.90;57.60;;;;;;4930332;29;20242;-80
2021/05/24 00:33:57;;;;;;;1.48;1.35;;;11.00;57.80;;;;;;4899333;29;20435;-81
2021/05/24 00:36:23;;;;;;;1.70;1.60;;;10.90;57.70;;;;;;4931643;29;20555;-81
2021/05/24 00:38:49;;;;;;;2.22;1.60;;;10.90;57.70;;;;;;4930253;29;20558;-80
2021/05/24 00:41:15;;;;;;;2.80;1.50;;;10.90;57.70;;;;;;4930325;29;20035;-80
2021/05/24 00:43:42;;;;;;;2.97;1.70;;;10.90;57.70;;;;;;4914456;29;20028;-79
2021/05/24 00:46:08;;;;;;;3.50;1.20;;;10.90;57.80;;;;;;4932140;29;20034;-79
2021/05/24 00:48:34;;;;;;;2.05;1.40;;;10.80;57.60;;;;;;4914559;29;20035;-80
2021/05/24 00:51:00;;;;;;;2.97;1.70;;;10.80;57.70;;;;;;4914381;29;20380;-80
2021/05/24 00:53:26;;;;;;;2.78;1.65;;;10.80;57.70;;;;;;4925580;29;20038;-82
2021/05/24 00:55:52;;;;;;;1.50;1.30;;;10.80;57.70;;;;;;4912255;29;20123;-79
2021/05/24 00:58:18;;;;;;;3.53;1.48;;;10.70;57.60;;;;;;4915013;29;20122;-80
2021/05/24 01:00:47;;;;;;;1.63;1.48;;;10.70;57.60;;;;;;4931404;29;20036;-80
2021/05/24 01:03:14;;;;;;;3.30;1.85;;;10.70;57.70;;;;;;4931145;29;20506;-79
2021/05/24 01:05:42;;;;;;;2.70;1.88;;;10.70;57.70;;;;;;4914033;29;20114;-80
2021/05/24 01:08:11;;;;;;;1.63;1.52;;;10.60;57.60;;;;;;4914412;29;20483;-80
2021/05/24 01:10:38;;;;;;;2.13;1.50;;;10.60;57.60;;;;;;4931284;29;20028;-79
2021/05/24 01:13:07;;;;;;;2.10;1.77;;;10.50;57.40;;;;;;4929399;29;20134;-80
2021/05/24 01:15:34;;;;;;;1.85;1.50;;;10.50;57.40;;;;;;4930955;29;20092;-79
2021/05/24 01:18:00;;;;;;;1.73;1.58;;;10.50;57.50;;;;;;4913612;29;20245;-80
2021/05/24 01:20:28;;;;;;;5.55;1.88;;;10.40;57.40;;;;;;4939256;29;20058;-80
2021/05/24 01:23:17;;;;;;;3.10;1.92;;;10.40;57.40;;;;;;4948369;28;20376;-79
2021/05/24 01:25:44;;;;;;;2.67;1.60;;;10.40;57.50;;;;;;4929904;29;20068;-82
2021/05/24 01:28:12;;;;;;;1.63;1.48;;;10.40;57.50;;;;;;4932276;29;20023;-82
2021/05/24 01:30:39;;;;;;;2.25;1.67;;;10.40;57.60;;;;;;4927150;29;20353;-79
2021/05/24 01:33:08;;;;;;;3.97;1.55;;;10.30;57.40;;;;;;4914009;29;20055;-82
2021/05/24 01:35:40;;;;;;;2.72;1.55;;;10.30;57.40;;;;;;4931752;29;20031;-81
2021/05/24 01:38:09;;;;;;;2.97;1.98;;;10.30;57.50;;;;;;4932813;29;20040;-81
2021/05/24 01:40:35;;;;;;;2.38;1.58;;;10.20;57.30;;;;;;4933616;29;20502;-79
2021/05/24 01:43:04;;;;;;;1.60;1.35;;;10.20;57.30;;;;;;4950658;28;20027;-81
2021/05/24 01:45:30;;;;;;;2.40;1.65;;;10.20;58.00;;;;;;4930073;29;20043;-80
2021/05/24 01:47:56;;;;;;;1.77;1.35;;;10.10;57.30;;;;;;4917205;29;20114;-80
2021/05/24 01:50:23;;;;;;;1.73;1.63;;;10.10;57.30;;;;;;4934895;29;20032;-80
2021/05/24 01:52:50;;;;;;;3.80;1.90;;;10.10;57.30;;;;;;4934710;29;20055;-79
2021/05/24 01:55:16;;;;;;;3.55;1.95;;;10.00;57.20;;;;;;4934407;29;20063;-79
2021/05/24 01:57:43;;;;;;;3.28;2.40;;;10.00;57.20;;;;;;4917574;29;20066;-80
2021/05/24 02:00:12;;;;;;;1.90;1.70;;;10.00;57.30;;;;;;4934556;29;20085;-80
2021/05/24 02:02:40;;;;;;;4.22;1.73;;;10.00;57.40;;;;;;4934450;29;20083;-80
2021/05/24 02:05:07;;;;;;;1.88;1.42;;;9.90;57.20;;;;;;4934111;29;20031;-80
2021/05/24 02:07:34;;;;;;;2.03;1.77;;;9.90;57.30;;;;;;4934816;29;20035;-80
2021/05/24 02:10:00;;;;;;;3.05;1.40;;;9.90;57.30;;;;;;4917137;29;20099;-80
2021/05/24 02:12:26;;;;;;;5.90;2.33;;;9.80;57.20;;;;;;4933914;29;20398;-79
2021/05/24 02:14:53;;;;;;;3.60;2.25;;;9.80;57.20;;;;;;4917151;29;20035;-81
2021/05/24 02:17:19;;;;;;;2.17;1.50;;;9.80;57.80;;;;;;4934407;29;20055;-80
2021/05/24 02:19:48;;;;;;;2.50;1.70;;;9.80;57.30;;;;;;4933899;29;20412;-80
2021/05/24 02:22:15;;;;;;;6.93;2.20;;;9.70;57.20;;;;;;4917211;29;20055;-80
2021/05/24 02:24:42;;;;;;;3.35;1.77;;;9.70;57.20;;;;;;4901523;29;20035;-80
2021/05/24 02:27:09;;;;;;;3.22;2.10;;;9.70;57.20;;;;;;4934210;29;20032;-80
2021/05/24 02:29:35;;;;;;;3.80;1.85;;;9.70;57.20;;;;;;4916902;29;20043;-80
2021/05/24 02:32:02;;;;;;;2.40;1.95;;;9.70;57.30;;;;;;4933323;29;20028;-80
2021/05/24 02:34:28;;;;;;;1.58;1.45;;;9.70;57.30;;;;;;4953289;29;20059;-80
2021/05/24 02:36:54;;;;;;;3.97;1.90;;;9.70;57.30;;;;;;4952904;29;20031;-80
2021/05/24 02:39:20;;;;;;;3.00;1.98;;;9.60;57.20;;;;;;4935992;29;20043;-79
2021/05/24 02:41:46;;;;;;;2.75;1.60;;;9.60;57.20;;;;;;4936096;29;20031;-80
2021/05/24 02:44:12;;;;;;;2.80;2.13;;;9.60;57.20;;;;;;4935806;29;20031;-79
2021/05/24 02:46:39;;;;;;;2.45;1.90;;;9.60;57.30;;;;;;4936407;29;20027;-78
2021/05/24 02:49:06;;;;;;;1.55;1.40;;;9.50;57.10;;;;;;4957174;29;20028;-80
2021/05/24 02:51:32;;;;;;;3.13;1.80;;;9.50;57.20;;;;;;4939440;29;20483;-78
2021/05/24 02:53:58;;;;;;;3.83;2.00;;;9.50;57.20;;;;;;4957277;29;20470;-80
2021/05/24 02:56:24;;;;;;;3.20;1.52;;;9.50;57.30;;;;;;4956957;29;20062;-80
2021/05/24 02:58:50;;;;;;;3.83;1.63;;;9.40;57.70;;;;;;4939380;29;20039;-81
2021/05/24 03:01:17;;;;;;;4.35;1.60;;;9.40;57.10;;;;;;4956923;29;20142;-80
2021/05/24 03:03:42;;;;;;;2.85;1.90;;;9.40;57.10;;;;;;4939651;29;20536;-80
2021/05/24 03:06:08;;;;;;;3.05;1.70;;;9.40;57.10;;;;;;4956310;29;20031;-80
2021/05/24 03:08:35;;;;;;;3.97;1.90;;;9.30;57.00;;;;;;4956648;29;20485;-81
2021/05/24 03:11:01;;;;;;;3.05;2.03;;;9.30;57.00;;;;;;4939782;29;20039;-80
2021/05/24 03:13:28;;;;;;;2.00;1.60;;;9.30;57.10;;;;;;4938937;29;20038;-80
2021/05/24 03:15:55;;;;;;;2.10;1.70;;;9.30;57.10;;;;;;4956572;29;20506;-80
2021/05/24 03:18:21;;;;;;;1.90;1.75;;;9.20;56.90;;;;;;4956347;29;20050;-79
2021/05/24 03:20:48;;;;;;;3.25;1.92;;;9.20;57.00;;;;;;4939169;29;20053;-79
2021/05/24 03:23:14;;;;;;;2.53;1.60;;;9.20;57.00;;;;;;4956593;29;20023;-80
2021/05/24 03:25:40;;;;;;;2.38;1.70;;;9.20;57.00;;;;;;4939448;29;20035;-80
2021/05/24 03:28:06;;;;;;;4.40;2.17;;;9.10;56.90;;;;;;4956205;29;20098;-80
2021/05/24 03:30:32;;;;;;;2.97;2.08;;;9.10;56.90;;;;;;4956472;29;20027;-79
2021/05/24 03:32:58;;;;;;;2.22;1.85;;;9.00;56.80;;;;;;4956341;29;20482;-79
2021/05/24 03:35:24;;;;;;;4.28;2.03;;;9.00;56.80;;;;;;4956242;29;20110;-80
2021/05/24 03:37:50;;;;;;;2.92;1.75;;;9.00;56.80;;;;;;4939144;29;20035;-79
2021/05/24 03:40:17;;;;;;;3.67;2.00;;;9.00;56.90;;;;;;4938083;29;20046;-80
2021/05/24 03:42:43;;;;;;;4.32;2.13;;;9.00;57.00;;;;;;4923019;29;20082;-79
2021/05/24 03:45:16;;;;;;;5.43;2.45;;;9.00;57.00;;;;;;4956241;29;20066;-80
2021/05/24 03:47:43;;;;;;;2.50;1.88;;;9.00;57.10;;;;;;4956410;29;20395;-80
2021/05/24 03:50:10;;;;;;;3.10;1.98;;;9.00;57.00;;;;;;4938940;29;20043;-80
2021/05/24 03:52:36;;;;;;;2.92;2.05;;;8.90;56.90;;;;;;4955931;29;20028;-80
2021/05/24 03:55:04;;;;;;;2.55;1.90;;;9.00;57.10;;;;;;4955903;29;20031;-79
2021/05/24 03:57:30;;;;;;;3.65;1.88;;;9.00;57.10;;;;;;4955543;28;20391;-81
2021/05/24 03:59:56;;;;;;;2.63;1.75;;;8.90;57.00;;;;;;4938467;29;20071;-80
2021/05/24 04:02:22;;;;;;;4.35;2.53;;;8.90;57.00;;;;;;4955529;29;20066;-79
2021/05/24 04:04:49;;;;;;;4.80;2.17;;;8.90;57.00;;;;;;4955439;29;20033;-80
2021/05/24 04:07:21;;;;;;;3.28;1.92;;;8.90;57.10;;;;;;4922506;29;20475;-79
2021/05/24 04:09:47;;;;;;;3.60;2.45;;;8.90;57.10;;;;;;4938633;29;20122;-79
2021/05/24 04:12:13;;;;;;;4.32;1.60;;;8.90;57.10;;;;;;4937990;29;20517;-79
2021/05/24 04:14:41;;;;;;;2.17;1.75;;;8.90;57.10;;;;;;4938218;29;20031;-80
2021/05/24 04:17:08;;;;;;;5.13;2.55;;;8.90;57.10;;;;;;4955369;29;20101;-78
2021/05/24 04:19:34;;;;;;;4.50;2.33;;;8.90;57.20;;;;;;4955291;29;20153;-79
2021/05/24 04:22:00;;;;;;;6.03;2.28;;;8.90;57.20;;;;;;4955373;29;20046;-79
2021/05/24 04:24:26;;;;;;;3.53;2.13;;;8.90;57.20;;;;;;4938343;29;20039;-79
2021/05/24 04:26:52;;;;;;;3.50;2.28;;;9.00;57.50;;;;;;4955010;29;20023;-79
2021/05/24 04:29:18;;;;;;;4.47;2.00;;;9.00;57.40;;;;;;4938318;29;20035;-80
2021/05/24 04:31:44;;;;;;;3.80;2.35;;;9.00;57.40;;;;;;4955267;29;20063;-80
2021/05/24 04:34:10;;;;;;;3.50;2.00;;;9.10;57.60;;;;;;4938051;29;20079;-80
2021/05/24 04:36:36;;;;;;;2.88;2.08;;;9.10;57.50;;;;;;4955266;29;20031;-79
2021/05/24 04:39:03;;;;;;;4.25;1.73;;;9.10;57.50;;;;;;4938061;29;20035;-80
2021/05/24 04:41:28;;;;;;;4.25;2.25;;;9.10;57.50;;;;;;4937882;29;20031;-80
2021/05/24 04:44:08;;;;;;;2.95;1.80;;;9.20;57.70;;;;;;4937668;29;20034;-80
2021/05/24 04:46:34;;;;;;;4.13;2.03;;;9.20;57.70;;;;;;4954851;29;20126;-80
2021/05/24 04:49:00;;;;;;;8.10;1.75;;;9.30;57.70;;;;;;4934252;29;20122;-80
2021/05/24 04:51:27;;;;;;;3.97;2.30;;;9.30;57.70;;;;;;4915286;29;20032;-81
2021/05/24 04:53:52;;;;;;;3.20;2.20;;;9.30;57.60;;;;;;4915221;29;20103;-80
2021/05/24 04:56:18;;;;;;;4.15;1.58;;;9.40;57.80;;;;;;4932643;29;20027;-80
2021/05/24 04:58:44;;;;;;;4.25;2.00;;;9.40;57.70;;;;;;4943740;29;20043;-80
2021/05/24 05:01:10;;;;;;;4.30;2.40;;;9.50;57.90;;;;;;4934458;28;20550;-78
2021/05/24 05:03:36;;;;;;;5.07;1.92;;;9.50;57.80;;;;;;4925227;29;20028;-79
2021/05/24 05:06:02;;;;;;;7.97;2.22;;;9.60;57.90;;;;;;4910749;29;20071;-78
2021/05/24 05:08:28;;;;;;;5.32;2.42;;;9.60;57.90;;;;;;4940790;29;20408;-78
2021/05/24 05:10:55;;;;;;;4.05;1.90;;;9.60;57.90;;;;;;4949352;28;20038;-78
2021/05/24 05:13:21;;;;;;;2.55;1.70;;;9.60;57.80;;;;;;4916764;29;20087;-79
2021/05/24 05:15:47;;;;;;;6.78;2.45;;;9.60;57.80;;;;;;4949901;28;20034;-79
2021/05/24 05:18:13;;;;;;;4.68;2.33;;;9.70;57.90;;;;;;4933308;29;20051;-78
2021/05/24 05:20:39;;;;;;;7.45;2.25;;;9.80;58.10;;;;;;4932424;29;20047;-79
2021/05/24 05:23:05;;;;;;;5.75;1.90;;;9.70;57.90;;;;;;4941030;28;20038;-78
2021/05/24 05:25:31;;;;;;;5.22;2.20;;;9.70;57.90;;;;;;4913361;29;20042;-79
2021/05/24 05:27:57;;;;;;;4.30;2.42;;;9.80;58.00;;;;;;4935864;29;20027;-79
2021/05/24 05:30:23;;;;;;;3.15;1.92;;;9.80;58.00;;;;;;4930824;29;20027;-81
2021/05/24 05:32:49;;;;;;;5.47;2.50;;;9.80;58.00;;;;;;4949649;28;20035;-78
2021/05/24 05:35:17;;;;;;;3.53;2.25;;;9.90;58.20;;;;;;4949196;28;20028;-81
2021/05/24 05:37:44;;;;;;;3.28;2.10;;;9.90;58.20;;;;;;4949101;28;20144;-77
2021/05/24 05:40:16;;;;;;;4.32;2.13;;;9.90;58.20;;;;;;4931666;29;20039;-79
2021/05/24 05:42:42;;;;;;;3.40;1.85;;;10.00;58.30;;;;;;4915828;29;20046;-79
2021/05/24 05:45:08;;;;;;;4.57;2.40;;;10.10;58.40;;;;;;4932177;28;20042;-81
2021/05/24 05:47:35;;;;;;;6.32;2.38;;;10.10;58.30;;;;;;4931244;29;20055;-77
2021/05/24 05:50:00;;;;;;;4.18;2.22;;;10.20;58.40;;;;;;4949904;29;20379;-80
2021/05/24 05:52:27;;;;;;;2.75;2.20;;;10.30;58.50;;;;;;4950404;28;20027;-79
2021/05/24 05:54:53;;;;;;;4.22;2.00;;;10.30;58.40;;;;;;4950120;28;20035;-80
2021/05/24 05:57:19;;;;;;;2.50;2.03;;;10.40;58.50;;;;;;4949716;28;20101;-80
2021/05/24 05:59:44;;;;;;;3.58;2.10;;;10.50;58.60;;;;;;4932688;29;20063;-80
2021/05/24 06:02:11;;;;;;;2.75;2.17;;;10.50;58.60;;;;;;4949366;28;20039;-81
2021/05/24 06:04:37;;;;;;;3.38;1.52;;;10.60;58.70;;;;;;4931915;28;20039;-78
2021/05/24 06:07:02;;;;;;;4.35;2.03;;;10.60;58.70;;;;;;4932627;29;20038;-79
2021/05/24 06:09:28;;;;;;;3.72;1.95;;;10.70;58.80;;;;;;4949361;29;20038;-80
2021/05/24 06:11:54;;;;;;;5.40;2.47;;;10.70;58.70;;;;;;4943748;28;20091;-80
2021/05/24 06:14:21;;;;;;;3.65;2.33;;;10.80;58.90;;;;;;4948556;29;20063;-81
2021/05/24 06:16:48;;;;;;;5.07;2.22;;;10.90;59.00;;;;;;4932195;29;20513;-82
2021/05/24 06:19:15;;;;;;;5.70;2.67;;;10.90;59.30;;;;;;4930270;29;20036;-81
2021/05/24 06:21:42;;;;;;;4.97;2.25;;;11.00;59.90;;;;;;4929814;29;20415;-81
2021/05/24 06:24:09;;;;;;;4.43;2.42;;;11.10;60.30;;;;;;4947200;28;20489;-81
2021/05/24 06:26:36;;;;;;;6.63;2.42;;;11.20;60.60;;;;;;4949303;28;20126;-82
2021/05/24 06:29:02;;;;;;;5.68;2.08;;;11.20;60.60;;;;;;4948621;28;20031;-83
2021/05/24 06:31:28;;;;;;;7.60;3.10;;;11.30;60.70;;;;;;4949055;28;20517;-82
2021/05/24 06:33:54;;;;;;;7.72;2.33;;;11.30;60.60;;;;;;4949726;28;20483;-84
2021/05/24 06:36:20;;;;;;;6.05;2.45;;;11.40;60.80;;;;;;4916307;29;20031;-79
2021/05/24 06:38:46;;;;;;;5.18;2.05;;;11.40;60.70;;;;;;4949271;28;20039;-80
2021/05/24 06:41:12;;;;;;;4.13;2.35;;;11.40;60.70;;;;;;4932574;29;20035;-85
2021/05/24 06:43:39;;;;;;;4.80;2.55;;;11.40;60.80;;;;;;4916294;29;20035;-81
2021/05/24 06:46:05;;;;;;;3.72;2.20;;;11.40;60.70;;;;;;4949031;28;20035;-80
2021/05/24 06:48:31;;;;;;;5.20;2.47;;;11.40;60.80;;;;;;4949237;28;20114;-81
2021/05/24 06:50:58;;;;;;;5.30;2.63;;;11.40;60.80;;;;;;4949216;28;20031;-81
2021/05/24 06:53:24;;;;;;;4.07;2.03;;;11.40;60.80;;;;;;4948833;28;20031;-82
2021/05/24 06:55:50;;;;;;;6.20;2.88;;;11.40;60.80;;;;;;4949701;29;20330;-81
2021/05/24 06:58:16;;;;;;;7.90;3.00;;;11.40;60.80;;;;;;4948409;29;20031;-83
2021/05/24 07:00:42;;;;;;;5.63;2.17;;;11.40;60.70;;;;;;4915696;29;20051;-82
2021/05/24 07:03:08;;;;;;;7.15;2.53;;;11.40;60.70;;;;;;4931468;29;20027;-82
2021/05/24 07:05:34;;;;;;;4.40;2.35;;;11.40;60.70;;;;;;4931124;28;20042;-81
2021/05/24 07:08:00;;;;;;;4.05;2.05;;;11.40;60.80;;;;;;4931376;29;20031;-81
2021/05/24 07:10:27;;;;;;;4.35;1.65;;;11.40;60.80;;;;;;4932135;29;20119;-81
2021/05/24 07:12:53;;;;;;;5.90;2.47;;;11.40;60.70;;;;;;4948877;28;20035;-85
2021/05/24 07:15:19;;;;;;;5.40;2.22;;;11.50;60.90;;;;;;4949029;29;20364;-79
2021/05/24 07:17:45;;;;;;;4.80;2.22;;;11.50;60.80;;;;;;4949007;29;20039;-80
2021/05/24 07:20:11;;;;;;;7.28;2.55;;;11.50;60.70;;;;;;4948160;29;20050;-80
2021/05/24 07:22:37;;;;;;;4.82;2.17;;;11.60;60.80;;;;;;4949242;29;20474;-82
2021/05/24 07:25:05;;;;;;;4.88;2.47;;;11.60;60.80;;;;;;4930986;28;20035;-82
2021/05/24 07:27:31;;;;;;;3.92;2.17;;;11.70;60.80;;;;;;4931632;29;20538;-81
2021/05/24 07:29:57;;;;;;;3.40;1.65;;;11.70;60.70;;;;;;4948224;28;20480;-80
2021/05/24 07:32:24;;;;;;;5.20;1.92;;;11.80;60.80;;;;;;4948399;28;20525;-80
2021/05/24 07:34:50;;;;;;;3.10;2.03;;;11.90;60.90;;;;;;4949276;28;20491;-79
2021/05/24 07:37:16;;;;;;;4.65;2.30;;;12.00;61.00;;;;;;4931035;29;20031;-80
2021/05/24 07:39:42;;;;;;;3.97;1.83;;;12.10;61.10;;;;;;4951760;29;20407;-80
2021/05/24 07:42:08;;;;;;;2.65;1.98;;;12.30;61.30;;;;;;4932452;29;20038;-78
2021/05/24 07:44:34;;;;;;;4.72;1.88;;;12.60;61.90;;;;;;4952039;28;20122;-78
2021/05/24 07:47:02;;;;;;;3.85;1.88;;;12.80;61.70;;;;;;4939977;29;20091;-81
2021/05/24 07:49:29;;;;;;;2.97;1.80;;;13.10;61.90;;;;;;4933218;29;20045;-85
2021/05/24 07:51:55;;;;;;;3.50;1.73;;;13.30;61.90;;;;;;4935740;29;20398;-78
2021/05/24 07:54:21;;;;;;;3.03;1.88;;;13.60;62.10;;;;;;4935936;29;20062;-79
2021/05/24 07:56:48;;;;;;;2.85;1.80;;;13.90;62.50;;;;;;4949330;28;20546;-81
2021/05/24 07:59:14;;;;;;;3.33;2.17;;;14.30;63.00;;;;;;4952202;28;20089;-85
2021/05/24 08:01:41;;;;;;;3.90;2.22;;;14.80;63.20;;;;;;4919303;29;20163;-81
2021/05/24 08:04:07;;;;;;;3.38;2.38;;;15.30;63.50;;;;;;4918688;29;20038;-82
2021/05/24 08:06:33;;;;;;;4.22;1.90;;;15.80;63.50;;;;;;4934792;28;20027;-83
2021/05/24 08:08:59;;;;;;;4.88;2.03;;;16.30;63.70;;;;;;4934022;29;20398;-85
2021/05/24 08:19:28;;;;;;;2.55;1.75;;;18.00;63.50;;;;;;4918793;29;20106;-84
2021/05/24 08:21:54;;;;;;;4.25;1.98;;;18.70;63.20;;;;;;4918365;28;20454;-82
2021/05/24 08:24:20;;;;;;;3.28;1.67;;;19.30;63.10;;;;;;4934895;29;20035;-83
2021/05/24 08:26:46;;;;;;;5.95;1.90;;;19.80;62.50;;;;;;4919228;28;20031;-81
2021/05/24 08:29:13;;;;;;;3.85;1.83;;;20.30;61.70;;;;;;4918985;29;20046;-85
2021/05/24 08:31:40;;;;;;;2.78;1.70;;;20.80;60.90;;;;;;4933801;29;20035;-83
2021/05/24 08:34:06;;;;;;;2.10;1.30;;;21.10;60.10;;;;;;4917866;28;20062;-81
2021/05/24 08:36:33;;;;;;;2.95;1.58;;;21.00;59.30;;;;;;4950810;28;20035;-83
2021/05/24 08:38:59;;;;;;;3.08;1.73;;;20.90;60.00;;;;;;4951434;28;20082;-83
2021/05/24 08:41:25;;;;;;;3.65;1.73;;;21.10;59.30;;;;;;4933564;28;20122;-82
2021/05/24 08:43:51;;;;;;;2.45;1.55;;;21.50;58.90;;;;;;4933091;28;20027;-82
2021/05/24 08:46:17;;;;;;;2.55;1.38;;;21.80;58.10;;;;;;4950306;28;20034;-85
2021/05/24 08:48:43;;;;;;;3.13;1.70;;;22.00;57.60;;;;;;4918221;29;20027;-83
2021/05/24 08:51:10;;;;;;;2.80;1.40;;;21.80;57.60;;;;;;4918903;29;20130;-83
2021/05/24 08:53:38;;;;;;;2.45;1.42;;;21.50;57.10;;;;;;4933930;28;20042;-84
2021/05/24 08:56:30;;;;;;;2.10;1.40;;;21.50;57.20;;;;;;4917921;29;20050;-84
2021/05/24 09:00:37;;;;;;;2.00;1.33;;;21.60;56.90;;;;;;4948029;29;20589;-84
2021/05/24 09:03:03;;;;;;;3.00;1.25;;;22.00;56.70;;;;;;4917285;29;20645;-81
2021/05/24 09:05:32;;;;;;;3.03;1.70;;;22.00;56.60;;;;;;4917850;29;20127;-82
2021/05/24 09:08:04;;;;;;;2.05;1.30;;;22.00;56.60;;;;;;4933350;29;20443;-82
2021/05/24 09:10:48;;;;;;;3.63;1.30;;;21.90;56.50;;;;;;4918048;29;20027;-84
2021/05/24 09:13:19;;;;;;;3.75;1.55;;;21.60;56.30;;;;;;4901694;29;20126;-83
2021/05/24 09:15:47;;;;;;;2.70;1.48;;;21.50;56.70;;;;;;4950759;28;20067;-84
2021/05/24 09:18:17;;;;;;;2.30;1.30;;;21.30;56.60;;;;;;4901966;29;20035;-84
2021/05/24 09:20:50;;;;;;;1.80;1.20;;;21.20;56.90;;;;;;4933253;29;20051;-83
2021/05/24 09:23:24;;;;;;;4.07;1.40;;;21.30;56.90;;;;;;4933096;29;20069;-83
2021/05/24 09:25:59;;;;;;;2.60;1.48;;;21.40;56.60;;;;;;4917754;29;20039;-83
2021/05/24 09:28:34;;;;;;;4.43;1.35;;;21.30;56.20;;;;;;4916869;29;20513;-84
2021/05/24 09:31:06;;;;;;;2.30;1.40;;;21.20;56.20;;;;;;4933261;29;20118;-84
2021/05/24 09:42:43;;;;;;;3.58;1.15;;;20.50;56.50;;;;;;4876312;29;20563;-83
2021/05/24 09:45:48;;;;;;;;;;;20.20;56.40;;;;;;4855098;29;20267;-84
2021/05/24 09:48:38;;;;;;;1.75;1.33;;;20.00;56.70;;;;;;4842543;29;19979;-84
2021/05/24 09:51:09;;;;;;;2.95;1.45;;;19.90;56.70;;;;;;4859691;29;20500;-81
2021/05/24 09:53:35;;;;;;;2.97;1.40;;;20.00;56.80;;;;;;4869297;29;20028;-81
2021/05/24 09:56:06;;;;;;;2.65;1.48;;;20.10;56.80;;;;;;4874233;29;20192;-81
2021/05/24 09:58:33;;;;;;;3.28;1.70;;;20.30;56.80;;;;;;4858053;29;20594;-81
2021/05/24 10:01:13;;;;;;;2.38;1.30;;;20.50;56.90;;;;;;4874825;29;20515;-81
2021/05/24 10:03:42;;;;;;;2.40;1.50;;;20.70;56.80;;;;;;4873961;29;20032;-81
2021/05/24 10:06:09;;;;;;;2.13;1.25;;;21.00;56.80;;;;;;4874669;29;20032;-81
2021/05/24 10:08:35;;;;;;;3.03;1.85;;;21.10;56.70;;;;;;4912704;29;20376;-83
2021/05/24 10:11:03;;;;;;;3.10;1.70;;;21.20;56.60;;;;;;4932263;29;20128;-82
2021/05/24 10:13:29;;;;;;;2.97;1.60;;;21.30;56.50;;;;;;4916585;29;20027;-82
2021/05/24 10:16:01;;;;;;;2.63;1.67;;;21.20;56.30;;;;;;4916322;29;20114;-80
2021/05/24 10:18:29;;;;;;;4.13;1.67;;;21.10;56.20;;;;;;4915979;29;20082;-81
2021/05/24 10:20:58;;;;;;;2.60;2.00;;;20.90;56.00;;;;;;4915849;29;20059;-82
2021/05/24 10:23:27;;;;;;;3.00;1.90;;;20.90;56.30;;;;;;4915967;29;20079;-80
2021/05/24 10:25:56;;;;;;;3.70;2.08;;;20.90;56.30;;;;;;4932001;29;20042;-80
2021/05/24 10:28:24;;;;;;;4.43;4.00;;;21.00;56.40;;;;;;4916250;29;20190;-81
2021/05/24 10:30:50;;;;;;;4.40;3.33;;;21.30;56.60;;;;;;4916025;29;20053;-81
2021/05/24 10:33:16;;;;;;;4.68;4.18;;;21.50;56.60;;;;;;4916401;29;20035;-80
2021/05/24 10:35:44;;;;;;;4.32;3.58;;;21.70;56.60;;;;;;4915954;29;20031;-80
2021/05/24 10:38:28;;;;;;;4.65;3.72;;;21.90;56.50;;;;;;4915724;29;20035;-83
2021/05/24 10:41:16;;;;;;;6.22;4.30;;;22.00;56.30;;;;;;4915940;29;20035;-82
2021/05/24 10:43:49;;;;;;;5.22;3.75;;;22.20;56.40;;;;;;4915698;29;20031;-81
2021/05/24 10:46:30;;;;;;;4.65;3.88;;;22.40;56.40;;;;;;4916131;29;20094;-81
2021/05/24 10:49:04;;;;;;;4.15;3.70;;;22.40;56.20;;;;;;4915719;29;20042;-81
2021/05/24 10:51:49;;;;;;;4.32;3.72;;;22.40;56.20;;;;;;4915937;29;20037;-81
2021/05/24 10:54:21;;;;;;;3.63;3.33;;;22.60;56.30;;;;;;4916313;29;20482;-81
2021/05/24 10:57:00;;;;;;;3.88;3.58;;;22.60;56.10;;;;;;4915971;29;20034;-83
2021/05/24 10:59:39;;;;;;;4.07;3.65;;;22.70;56.10;;;;;;4931636;29;20344;-81
2021/05/24 11:02:28;;;;;;;4.07;3.20;;;22.80;56.10;;;;;;4915282;29;20097;-80
2021/05/24 11:04:55;;;;;;;5.20;2.97;;;22.80;56.00;;;;;;4916044;28;20133;-79
2021/05/24 11:07:48;;;;;;;3.33;2.80;;;22.90;56.10;;;;;;4915808;29;20071;-80
2021/05/24 11:10:15;;;;;;;3.38;2.58;;;23.00;56.10;;;;;;4935202;29;20035;-79
2021/05/24 11:12:43;;;;;;;2.88;2.40;;;23.10;56.20;;;;;;4920228;29;20050;-80
2021/05/24 11:15:13;;;;;;;3.65;2.72;;;23.40;56.40;;;;;;4920941;28;20031;-80
2021/05/24 11:17:57;;;;;;;3.28;2.30;;;23.60;56.40;;;;;;4919157;29;20046;-81
2021/05/24 11:20:58;;;;;;;3.60;2.40;;;23.90;56.50;;;;;;4918871;29;20054;-81
2021/05/24 11:23:48;;;;;;;6.05;2.75;;;24.10;56.40;;;;;;4915677;29;20039;-82
2021/05/24 11:26:31;;;;;;;3.35;2.00;;;24.30;56.40;;;;;;4919022;28;20498;-81
2021/05/24 11:29:11;;;;;;;3.30;2.00;;;24.30;56.10;;;;;;4919204;29;20023;-83
2021/05/24 11:31:37;;;;;;;5.50;2.97;;;24.20;55.90;;;;;;4918783;29;20443;-81
2021/05/24 11:34:08;;;;;;;6.20;1.75;;;24.10;55.10;;;;;;4934904;29;20023;-79
2021/05/24 11:36:34;;;;;;;5.38;1.90;;;23.80;53.30;;;;;;4918286;29;20120;-81
2021/05/24 11:39:16;;;;;;;5.05;2.33;;;23.40;52.60;;;;;;4903440;29;20043;-81
2021/05/24 11:41:56;;;;;;;6.22;2.85;;;23.00;51.70;;;;;;4918803;29;20126;-82
2021/05/24 11:44:25;;;;;;;5.78;2.67;;;22.80;51.80;;;;;;4918784;28;20082;-81
2021/05/24 11:46:54;;;;;;;3.97;2.40;;;22.80;52.00;;;;;;4918428;29;20023;-83
2021/05/24 11:49:32;;;;;;;6.78;2.95;;;22.90;52.10;;;;;;4904045;28;20570;-81
2021/05/24 11:51:58;;;;;;;2.83;2.22;;;23.00;52.10;;;;;;4934925;29;20399;-81
2021/05/24 11:54:25;;;;;;;8.48;2.53;;;23.00;52.10;;;;;;4898363;29;20061;-82
2021/05/24 11:56:54;;;;;;;4.78;2.13;;;23.10;52.20;;;;;;4896214;29;20104;-81
2021/05/24 11:59:22;;;;;;;4.97;2.50;;;23.10;52.20;;;;;;4913241;29;20494;-79
2021/05/24 12:01:50;;;;;;;5.97;2.10;;;23.30;52.50;;;;;;4918056;29;20624;-80
2021/05/24 12:04:22;;;;;;;3.35;2.22;;;23.50;52.70;;;;;;4898998;29;20032;-79
2021/05/24 12:06:54;;;;;;;4.13;1.70;;;23.60;52.50;;;;;;4880758;29;20032;-80
2021/05/24 12:09:38;;;;;;;3.55;1.92;;;23.80;52.70;;;;;;4924377;29;20023;-79
2021/05/24 12:12:06;;;;;;;5.50;2.00;;;24.00;52.80;;;;;;4917827;29;20043;-80
2021/05/24 12:14:36;;;;;;;5.85;2.17;;;24.10;52.80;;;;;;4918253;29;20027;-79
2021/05/24 12:17:06;;;;;;;4.47;1.70;;;24.30;53.10;;;;;;4917761;29;20042;-82
2021/05/24 12:19:33;;;;;;;5.85;2.08;;;24.50;53.20;;;;;;4917493;28;20130;-81
2021/05/24 12:22:04;;;;;;;4.80;2.10;;;24.50;53.10;;;;;;4918124;29;20035;-83
2021/05/24 12:24:32;;;;;;;3.85;1.60;;;24.50;53.30;;;;;;4933329;29;20398;-83
2021/05/24 12:26:58;;;;;;;4.50;1.63;;;24.70;53.50;;;;;;4918351;29;20035;-82
2021/05/24 12:29:30;;;;;;;2.75;1.75;;;25.00;53.80;;;;;;4902442;29;20031;-82
2021/05/24 12:32:04;;;;;;;2.97;1.70;;;25.20;53.60;;;;;;4917903;28;20411;-82
2021/05/24 12:34:34;;;;;;;3.33;1.67;;;25.40;53.40;;;;;;4918391;29;20399;-83
2021/05/24 12:38:44;;;;;;;2.13;1.50;;;25.60;53.30;;;;;;4918020;29;20057;-85
2021/05/24 12:41:31;;;;;;;4.10;1.92;;;25.80;53.20;;;;;;4947926;28;20107;-83
2021/05/24 12:44:01;;;;;;;1.67;1.35;;;26.10;53.20;;;;;;4918003;29;20522;-85
2021/05/24 12:46:41;;;;;;;3.00;1.58;;;26.20;53.00;;;;;;4903364;29;20035;-86
2021/05/24 12:49:09;;;;;;;2.90;1.40;;;26.20;52.80;;;;;;4902430;29;20040;-82
2021/05/24 12:51:35;;;;;;;2.65;1.40;;;26.10;52.80;;;;;;4879570;29;20915;-83
2021/05/24 12:54:09;;;;;;;2.08;1.30;;;26.00;52.90;;;;;;4922654;29;20368;-82
2021/05/24 12:56:45;;;;;;;5.88;1.85;;;25.80;52.80;;;;;;4917420;28;20490;-82
2021/05/24 12:59:15;;;;;;;3.17;1.60;;;25.70;53.00;;;;;;4917184;29;20076;-80
2021/05/24 13:01:49;;;;;;;3.60;2.10;;;25.50;53.10;;;;;;4917360;29;20593;-84
2021/05/24 13:04:39;;;;;;;3.53;1.40;;;25.30;53.20;;;;;;4924270;28;20047;-84
2021/05/24 13:07:47;;;;;;;2.28;1.23;;;25.20;53.40;;;;;;4933527;28;20031;-84
2021/05/24 13:10:49;;;;;;;3.03;1.60;;;25.10;53.60;;;;;;4949657;28;20522;-85
2021/05/24 13:14:46;;;;;;;2.08;1.30;;;25.10;53.70;;;;;;4938519;29;20693;-85
2021/05/24 13:17:53;;;;;;;1.95;1.30;;;25.20;53.90;;;;;;4933249;28;20038;-84
2021/05/24 13:28:48;;;;;;;3.47;1.63;;;26.40;53.10;;;;;;4950910;28;20027;-85
2021/05/24 13:31:23;;;;;;;2.55;1.38;;;26.60;52.70;;;;;;4931953;29;20102;-84